American Islander — WDC5089 — position and weather

sailwx.info

Track history (hours):
 
Tides and Currents Weather Stations Pressure Air Temp Water Temp Dewpoint Dewpoint Depression Visibility Wind Speed Wind Dir Waves Ship Positions

American Islander

Owner: AMERICAN WORKBOATS, INC., HONOLULU, HI. More information available from US FCC via Universal Licensing System and Coast Guard Vessel Documentation Center.

Last reported at 2015-Aug-26 10:23 UTC. Time now 2015-Sep-02 04:31 UTC.
Position N 33°44' W 118°16'.

Length 31 m; draft 3 m.

Type: Ship. MMSI: 367035570.

Date/timePositionNaut miles runAvg speedWind from/ knotsBaromVisibWave heightAir tempDewpointWater temp
2015-Aug-26 10:23N 33°44' W 118°16'3 3.9
2015-Aug-26 09:33N 33°42' W 118°19'8 8.4
2015-Aug-26 08:33N 33°46' W 118°28'10 8.8
2015-Aug-26 07:22N 33°57' W 118°29'1 1.1
2015-Aug-26 06:24N 33°58' W 118°28'4 4.6
2015-Aug-26 05:33N 33°54' W 118°28'9 8.3
2015-Aug-26 04:31N 33°45' W 118°26'8 8.1
2015-Aug-26 03:33N 33°42' W 118°18'  
2015-Aug-18 23:17N 33°44' W 118°16'0 0.1
2015-Aug-18 22:34N 33°44' W 118°16'4 3.6
2015-Aug-18 21:33N 33°42' W 118°20'13 6.6
2015-Aug-18 19:33N 33°54' W 118°27'0 0.3
2015-Aug-18 18:34N 33°54' W 118°27'0 0.0
2015-Aug-18 17:33N 33°54' W 118°27'0 0.0
2015-Aug-18 16:33N 33°54' W 118°27'0 0.0
2015-Aug-18 15:34N 33°54' W 118°27'5 4.8
2015-Aug-18 14:34N 33°50' W 118°24'0 0.4
2015-Aug-18 13:34N 33°51' W 118°24'0 0.0
2015-Aug-18 12:33N 33°51' W 118°24'0 0.0
2015-Aug-18 11:33N 33°51' W 118°24'0 0.0
2015-Aug-18 10:34N 33°51' W 118°24'0 0.0
2015-Aug-18 09:34N 33°51' W 118°24'0 0.0
2015-Aug-18 08:34N 33°51' W 118°24'0 0.0
2015-Aug-18 07:33N 33°51' W 118°24'0 0.0
2015-Aug-18 06:34N 33°51' W 118°24'0 0.0
2015-Aug-18 05:33N 33°51' W 118°24'0 0.0
2015-Aug-18 04:33N 33°51' W 118°24'0 0.0
2015-Aug-18 04:11N 33°51' W 118°24'0 0.0
2015-Aug-18 04:08N 33°51' W 118°24'0 0.0
2015-Aug-18 03:34N 33°51' W 118°24'0 0.0
2015-Aug-18 02:33N 33°51' W 118°24'0 0.1
2015-Aug-18 01:33N 33°51' W 118°24'5 5.0
2015-Aug-18 00:34N 33°55' W 118°27'0 0.1
2015-Aug-17 23:33N 33°55' W 118°27'0 0.1
2015-Aug-17 22:33N 33°55' W 118°27'0 0.0
2015-Aug-17 21:33N 33°55' W 118°27'0 0.0
2015-Aug-17 20:33N 33°55' W 118°27'0 0.0
2015-Aug-17 19:33N 33°55' W 118°27'1 0.5
2015-Aug-17 18:33N 33°55' W 118°27'5 4.6
2015-Aug-17 17:33N 33°51' W 118°24'0 0.0
2015-Aug-17 16:33N 33°51' W 118°24'7 6.9
2015-Aug-17 15:33N 33°44' W 118°25'8 7.6
2015-Aug-17 14:29N 33°42' W 118°15'  
Track history (hours):
 
Tides and Currents Weather Stations Pressure Air Temp Water Temp Dewpoint Dewpoint Depression Visibility Wind Speed Wind Dir Waves Ship Positions

American Islander

Owner: AMERICAN WORKBOATS, INC., HONOLULU, HI. More information available from US FCC via Universal Licensing System and Coast Guard Vessel Documentation Center.

Last reported at 2015-Aug-26 10:23 UTC. Time now 2015-Sep-02 04:31 UTC.
Position N 33°44' W 118°16'.

Length 31 m; draft 3 m.

Type: Ship. MMSI: 367035570.

Date/timePositionNaut miles runAvg speedWind from/ knotsBaromVisibWave heightAir tempDewpointWater temp
2015-Aug-26 10:23N 33°44' W 118°16'3 3.9
2015-Aug-26 09:33N 33°42' W 118°19'8 8.4
2015-Aug-26 08:33N 33°46' W 118°28'10 8.8
2015-Aug-26 07:22N 33°57' W 118°29'1 1.1
2015-Aug-26 06:24N 33°58' W 118°28'4 4.6
2015-Aug-26 05:33N 33°54' W 118°28'9 8.3
2015-Aug-26 04:31N 33°45' W 118°26'8 8.1
2015-Aug-26 03:33N 33°42' W 118°18'  
2015-Aug-18 23:17N 33°44' W 118°16'0 0.1
2015-Aug-18 22:34N 33°44' W 118°16'4 3.6
2015-Aug-18 21:33N 33°42' W 118°20'13 6.6
2015-Aug-18 19:33N 33°54' W 118°27'0 0.3
2015-Aug-18 18:34N 33°54' W 118°27'0 0.0
2015-Aug-18 17:33N 33°54' W 118°27'0 0.0
2015-Aug-18 16:33N 33°54' W 118°27'0 0.0
2015-Aug-18 15:34N 33°54' W 118°27'5 4.8
2015-Aug-18 14:34N 33°50' W 118°24'0 0.4
2015-Aug-18 13:34N 33°51' W 118°24'0 0.0
2015-Aug-18 12:33N 33°51' W 118°24'0 0.0
2015-Aug-18 11:33N 33°51' W 118°24'0 0.0
2015-Aug-18 10:34N 33°51' W 118°24'0 0.0
2015-Aug-18 09:34N 33°51' W 118°24'0 0.0
2015-Aug-18 08:34N 33°51' W 118°24'0 0.0
2015-Aug-18 07:33N 33°51' W 118°24'0 0.0
2015-Aug-18 06:34N 33°51' W 118°24'0 0.0
2015-Aug-18 05:33N 33°51' W 118°24'0 0.0
2015-Aug-18 04:33N 33°51' W 118°24'0 0.0
2015-Aug-18 04:11N 33°51' W 118°24'0 0.0
2015-Aug-18 04:08N 33°51' W 118°24'0 0.0
2015-Aug-18 03:34N 33°51' W 118°24'0 0.0
2015-Aug-18 02:33N 33°51' W 118°24'0 0.1
2015-Aug-18 01:33N 33°51' W 118°24'5 5.0
2015-Aug-18 00:34N 33°55' W 118°27'0 0.1
2015-Aug-17 23:33N 33°55' W 118°27'0 0.1
2015-Aug-17 22:33N 33°55' W 118°27'0 0.0
2015-Aug-17 21:33N 33°55' W 118°27'0 0.0
2015-Aug-17 20:33N 33°55' W 118°27'0 0.0
2015-Aug-17 19:33N 33°55' W 118°27'1 0.5
2015-Aug-17 18:33N 33°55' W 118°27'5 4.6
2015-Aug-17 17:33N 33°51' W 118°24'0 0.0
2015-Aug-17 16:33N 33°51' W 118°24'7 6.9
2015-Aug-17 15:33N 33°44' W 118°25'8 7.6
2015-Aug-17 14:29N 33°42' W 118°15'  

Dump ship's entire track history